sensor_id;sensor_type;location;lat;lon;timestamp;P1;durP1;ratioP1;P2;durP2;ratioP2
41233;SDS011;26968;42.686;23.352;2022-10-15T00:01:11;8.73;;;5.28;;
41233;SDS011;26968;42.686;23.352;2022-10-15T00:03:40;11.95;;;5.45;;
41233;SDS011;26968;42.686;23.352;2022-10-15T00:06:07;9.05;;;5.22;;
41233;SDS011;26968;42.686;23.352;2022-10-15T00:08:34;8.95;;;4.55;;
41233;SDS011;26968;42.686;23.352;2022-10-15T00:11:01;9.90;;;5.13;;
41233;SDS011;26968;42.686;23.352;2022-10-15T00:13:47;8.25;;;4.88;;
41233;SDS011;26968;42.686;23.352;2022-10-15T00:16:14;6.13;;;4.00;;
41233;SDS011;26968;42.686;23.352;2022-10-15T00:18:41;10.95;;;4.70;;
41233;SDS011;26968;42.686;23.352;2022-10-15T00:21:07;7.13;;;4.07;;
41233;SDS011;26968;42.686;23.352;2022-10-15T00:23:35;12.13;;;4.57;;
41233;SDS011;26968;42.686;23.352;2022-10-15T00:26:02;11.02;;;5.13;;
41233;SDS011;26968;42.686;23.352;2022-10-15T00:28:32;10.35;;;5.30;;
41233;SDS011;26968;42.686;23.352;2022-10-15T00:30:59;7.15;;;4.75;;
41233;SDS011;26968;42.686;23.352;2022-10-15T00:33:26;13.18;;;5.47;;
41233;SDS011;26968;42.686;23.352;2022-10-15T00:35:58;13.80;;;5.88;;
41233;SDS011;26968;42.686;23.352;2022-10-15T00:38:28;9.07;;;5.50;;
41233;SDS011;26968;42.686;23.352;2022-10-15T00:40:54;6.75;;;4.53;;
41233;SDS011;26968;42.686;23.352;2022-10-15T00:46:26;7.30;;;4.20;;
41233;SDS011;26968;42.686;23.352;2022-10-15T00:48:57;7.20;;;4.22;;
41233;SDS011;26968;42.686;23.352;2022-10-15T00:51:28;9.45;;;4.75;;
41233;SDS011;26968;42.686;23.352;2022-10-15T00:53:59;10.60;;;4.38;;
41233;SDS011;26968;42.686;23.352;2022-10-15T00:56:24;8.80;;;4.47;;
41233;SDS011;26968;42.686;23.352;2022-10-15T00:58:51;14.10;;;4.97;;
41233;SDS011;26968;42.686;23.352;2022-10-15T01:01:18;7.03;;;4.05;;
41233;SDS011;26968;42.686;23.352;2022-10-15T01:03:44;10.68;;;4.15;;
41233;SDS011;26968;42.686;23.352;2022-10-15T01:06:11;8.15;;;4.30;;
41233;SDS011;26968;42.686;23.352;2022-10-15T01:08:37;8.18;;;4.30;;
41233;SDS011;26968;42.686;23.352;2022-10-15T01:16:45;12.50;;;4.53;;
41233;SDS011;26968;42.686;23.352;2022-10-15T01:24:59;11.02;;;4.57;;
41233;SDS011;26968;42.686;23.352;2022-10-15T01:27:42;10.15;;;5.10;;
41233;SDS011;26968;42.686;23.352;2022-10-15T01:32:42;8.98;;;4.95;;
41233;SDS011;26968;42.686;23.352;2022-10-15T01:35:30;8.82;;;4.90;;
41233;SDS011;26968;42.686;23.352;2022-10-15T01:40:53;15.80;;;5.07;;
41233;SDS011;26968;42.686;23.352;2022-10-15T01:44:10;16.63;;;5.80;;
41233;SDS011;26968;42.686;23.352;2022-10-15T01:46:49;10.73;;;5.40;;
41233;SDS011;26968;42.686;23.352;2022-10-15T01:49:10;10.45;;;4.90;;
41233;SDS011;26968;42.686;23.352;2022-10-15T01:51:40;9.20;;;4.72;;
41233;SDS011;26968;42.686;23.352;2022-10-15T01:54:09;12.23;;;5.50;;
41233;SDS011;26968;42.686;23.352;2022-10-15T01:56:38;8.07;;;4.50;;
41233;SDS011;26968;42.686;23.352;2022-10-15T01:59:05;8.68;;;4.47;;
41233;SDS011;26968;42.686;23.352;2022-10-15T02:01:32;10.45;;;4.78;;
41233;SDS011;26968;42.686;23.352;2022-10-15T02:03:58;8.45;;;4.65;;
41233;SDS011;26968;42.686;23.352;2022-10-15T02:09:19;13.63;;;4.70;;
41233;SDS011;26968;42.686;23.352;2022-10-15T02:14:23;9.70;;;4.28;;
41233;SDS011;26968;42.686;23.352;2022-10-15T02:16:57;9.55;;;4.63;;
41233;SDS011;26968;42.686;23.352;2022-10-15T02:22:31;11.13;;;4.80;;
41233;SDS011;26968;42.686;23.352;2022-10-15T02:25:04;8.68;;;4.85;;
41233;SDS011;26968;42.686;23.352;2022-10-15T02:27:33;6.38;;;4.38;;
41233;SDS011;26968;42.686;23.352;2022-10-15T02:30:02;12.13;;;4.70;;
41233;SDS011;26968;42.686;23.352;2022-10-15T02:32:31;13.35;;;4.80;;
41233;SDS011;26968;42.686;23.352;2022-10-15T02:34:56;10.00;;;4.45;;
41233;SDS011;26968;42.686;23.352;2022-10-15T02:37:24;9.95;;;5.30;;
41233;SDS011;26968;42.686;23.352;2022-10-15T02:39:51;7.63;;;4.70;;
41233;SDS011;26968;42.686;23.352;2022-10-15T02:42:17;13.25;;;4.72;;
41233;SDS011;26968;42.686;23.352;2022-10-15T02:44:43;9.18;;;5.07;;
41233;SDS011;26968;42.686;23.352;2022-10-15T02:47:09;10.77;;;5.00;;
41233;SDS011;26968;42.686;23.352;2022-10-15T02:49:35;9.27;;;5.00;;
41233;SDS011;26968;42.686;23.352;2022-10-15T02:52:01;8.98;;;5.35;;
41233;SDS011;26968;42.686;23.352;2022-10-15T02:54:26;8.55;;;4.80;;
41233;SDS011;26968;42.686;23.352;2022-10-15T02:56:51;9.65;;;4.63;;
41233;SDS011;26968;42.686;23.352;2022-10-15T02:59:17;10.30;;;5.18;;
41233;SDS011;26968;42.686;23.352;2022-10-15T03:01:44;8.80;;;4.85;;
41233;SDS011;26968;42.686;23.352;2022-10-15T03:04:10;9.40;;;5.68;;
41233;SDS011;26968;42.686;23.352;2022-10-15T03:06:35;8.95;;;4.80;;
41233;SDS011;26968;42.686;23.352;2022-10-15T03:09:00;6.82;;;4.55;;
41233;SDS011;26968;42.686;23.352;2022-10-15T03:11:26;11.57;;;4.82;;
41233;SDS011;26968;42.686;23.352;2022-10-15T03:13:51;11.68;;;5.00;;
41233;SDS011;26968;42.686;23.352;2022-10-15T03:16:17;12.98;;;5.10;;
41233;SDS011;26968;42.686;23.352;2022-10-15T03:18:42;11.15;;;5.07;;
41233;SDS011;26968;42.686;23.352;2022-10-15T03:21:08;9.77;;;4.75;;
41233;SDS011;26968;42.686;23.352;2022-10-15T03:23:33;10.15;;;4.88;;
41233;SDS011;26968;42.686;23.352;2022-10-15T03:25:59;8.02;;;4.72;;
41233;SDS011;26968;42.686;23.352;2022-10-15T03:28:24;10.60;;;4.57;;
41233;SDS011;26968;42.686;23.352;2022-10-15T03:30:49;11.43;;;5.00;;
41233;SDS011;26968;42.686;23.352;2022-10-15T03:33:15;13.50;;;5.50;;
41233;SDS011;26968;42.686;23.352;2022-10-15T03:35:40;9.00;;;5.55;;
41233;SDS011;26968;42.686;23.352;2022-10-15T03:38:06;9.05;;;5.45;;
41233;SDS011;26968;42.686;23.352;2022-10-15T03:40:32;12.10;;;5.57;;
41233;SDS011;26968;42.686;23.352;2022-10-15T03:42:58;13.43;;;5.65;;
41233;SDS011;26968;42.686;23.352;2022-10-15T03:45:24;8.05;;;5.60;;
41233;SDS011;26968;42.686;23.352;2022-10-15T03:47:50;11.75;;;5.40;;
41233;SDS011;26968;42.686;23.352;2022-10-15T03:50:15;12.13;;;4.78;;
41233;SDS011;26968;42.686;23.352;2022-10-15T03:52:41;8.85;;;5.28;;
41233;SDS011;26968;42.686;23.352;2022-10-15T03:55:07;16.88;;;5.68;;
41233;SDS011;26968;42.686;23.352;2022-10-15T03:57:34;10.57;;;5.55;;
41233;SDS011;26968;42.686;23.352;2022-10-15T03:59:59;14.30;;;6.18;;
41233;SDS011;26968;42.686;23.352;2022-10-15T04:02:25;11.40;;;5.55;;
41233;SDS011;26968;42.686;23.352;2022-10-15T04:04:51;10.55;;;6.00;;
41233;SDS011;26968;42.686;23.352;2022-10-15T04:07:17;10.65;;;5.70;;
41233;SDS011;26968;42.686;23.352;2022-10-15T04:09:44;15.57;;;5.45;;
41233;SDS011;26968;42.686;23.352;2022-10-15T04:12:09;11.35;;;5.75;;
41233;SDS011;26968;42.686;23.352;2022-10-15T04:14:35;13.07;;;5.95;;
41233;SDS011;26968;42.686;23.352;2022-10-15T04:17:00;15.60;;;6.88;;
41233;SDS011;26968;42.686;23.352;2022-10-15T04:19:26;9.80;;;5.47;;
41233;SDS011;26968;42.686;23.352;2022-10-15T04:21:51;11.95;;;6.15;;
41233;SDS011;26968;42.686;23.352;2022-10-15T04:24:17;8.07;;;5.78;;
41233;SDS011;26968;42.686;23.352;2022-10-15T04:26:42;9.80;;;6.15;;
41233;SDS011;26968;42.686;23.352;2022-10-15T04:29:08;11.05;;;6.82;;
41233;SDS011;26968;42.686;23.352;2022-10-15T04:31:33;9.85;;;5.78;;
41233;SDS011;26968;42.686;23.352;2022-10-15T04:33:59;14.68;;;6.82;;
41233;SDS011;26968;42.686;23.352;2022-10-15T04:36:24;11.85;;;6.57;;
41233;SDS011;26968;42.686;23.352;2022-10-15T04:38:51;9.63;;;6.28;;
41233;SDS011;26968;42.686;23.352;2022-10-15T04:41:16;11.88;;;6.97;;
41233;SDS011;26968;42.686;23.352;2022-10-15T04:43:42;15.45;;;7.18;;
41233;SDS011;26968;42.686;23.352;2022-10-15T04:46:08;10.45;;;7.05;;
41233;SDS011;26968;42.686;23.352;2022-10-15T04:48:34;16.17;;;7.90;;
41233;SDS011;26968;42.686;23.352;2022-10-15T04:51:04;14.63;;;7.22;;
41233;SDS011;26968;42.686;23.352;2022-10-15T04:53:31;21.15;;;6.75;;
41233;SDS011;26968;42.686;23.352;2022-10-15T04:56:03;14.48;;;6.55;;
41233;SDS011;26968;42.686;23.352;2022-10-15T04:58:31;13.88;;;6.28;;
41233;SDS011;26968;42.686;23.352;2022-10-15T05:00:58;12.68;;;6.82;;
41233;SDS011;26968;42.686;23.352;2022-10-15T05:03:25;13.52;;;7.57;;
41233;SDS011;26968;42.686;23.352;2022-10-15T05:05:50;12.00;;;7.00;;
41233;SDS011;26968;42.686;23.352;2022-10-15T05:08:16;12.80;;;6.60;;
41233;SDS011;26968;42.686;23.352;2022-10-15T05:10:41;19.95;;;7.30;;
41233;SDS011;26968;42.686;23.352;2022-10-15T05:13:07;12.25;;;7.32;;
41233;SDS011;26968;42.686;23.352;2022-10-15T05:15:32;14.85;;;7.28;;
41233;SDS011;26968;42.686;23.352;2022-10-15T05:17:57;11.43;;;7.22;;
41233;SDS011;26968;42.686;23.352;2022-10-15T05:20:23;13.45;;;6.80;;
41233;SDS011;26968;42.686;23.352;2022-10-15T05:22:48;13.43;;;6.82;;
41233;SDS011;26968;42.686;23.352;2022-10-15T05:25:14;13.98;;;7.13;;
41233;SDS011;26968;42.686;23.352;2022-10-15T05:27:40;17.35;;;7.35;;
41233;SDS011;26968;42.686;23.352;2022-10-15T05:30:05;10.57;;;6.30;;
41233;SDS011;26968;42.686;23.352;2022-10-15T05:32:31;16.30;;;7.15;;
41233;SDS011;26968;42.686;23.352;2022-10-15T05:34:57;13.63;;;6.78;;
41233;SDS011;26968;42.686;23.352;2022-10-15T05:37:22;19.20;;;7.50;;
41233;SDS011;26968;42.686;23.352;2022-10-15T05:39:48;17.45;;;7.45;;
41233;SDS011;26968;42.686;23.352;2022-10-15T05:42:13;24.33;;;6.95;;
41233;SDS011;26968;42.686;23.352;2022-10-15T05:44:38;19.45;;;6.85;;
41233;SDS011;26968;42.686;23.352;2022-10-15T05:47:04;19.30;;;7.35;;
41233;SDS011;26968;42.686;23.352;2022-10-15T05:49:30;14.35;;;6.95;;
41233;SDS011;26968;42.686;23.352;2022-10-15T05:51:56;18.70;;;7.07;;
41233;SDS011;26968;42.686;23.352;2022-10-15T05:54:21;20.73;;;7.43;;
41233;SDS011;26968;42.686;23.352;2022-10-15T05:56:46;17.58;;;7.75;;
41233;SDS011;26968;42.686;23.352;2022-10-15T05:59:12;16.85;;;7.63;;
41233;SDS011;26968;42.686;23.352;2022-10-15T06:01:38;19.80;;;7.28;;
41233;SDS011;26968;42.686;23.352;2022-10-15T06:04:04;14.18;;;7.22;;
41233;SDS011;26968;42.686;23.352;2022-10-15T06:06:29;17.40;;;7.45;;
41233;SDS011;26968;42.686;23.352;2022-10-15T06:08:55;15.40;;;7.57;;
41233;SDS011;26968;42.686;23.352;2022-10-15T06:11:22;13.73;;;7.00;;
41233;SDS011;26968;42.686;23.352;2022-10-15T06:13:48;20.15;;;7.50;;
41233;SDS011;26968;42.686;23.352;2022-10-15T06:16:13;15.20;;;7.10;;
41233;SDS011;26968;42.686;23.352;2022-10-15T06:18:40;14.13;;;7.00;;
41233;SDS011;26968;42.686;23.352;2022-10-15T06:21:06;12.68;;;6.63;;
41233;SDS011;26968;42.686;23.352;2022-10-15T06:23:32;19.38;;;7.55;;
41233;SDS011;26968;42.686;23.352;2022-10-15T06:26:05;15.30;;;6.97;;
41233;SDS011;26968;42.686;23.352;2022-10-15T06:28:32;16.85;;;7.10;;
41233;SDS011;26968;42.686;23.352;2022-10-15T06:30:59;17.23;;;7.00;;
41233;SDS011;26968;42.686;23.352;2022-10-15T06:33:25;11.55;;;6.63;;
41233;SDS011;26968;42.686;23.352;2022-10-15T06:35:51;13.23;;;6.60;;
41233;SDS011;26968;42.686;23.352;2022-10-15T06:38:16;19.02;;;7.07;;
41233;SDS011;26968;42.686;23.352;2022-10-15T06:40:45;17.63;;;7.57;;
41233;SDS011;26968;42.686;23.352;2022-10-15T06:43:10;21.77;;;7.35;;
41233;SDS011;26968;42.686;23.352;2022-10-15T06:45:37;16.58;;;6.40;;
41233;SDS011;26968;42.686;23.352;2022-10-15T06:48:04;17.50;;;7.10;;
41233;SDS011;26968;42.686;23.352;2022-10-15T06:50:31;18.73;;;7.38;;
41233;SDS011;26968;42.686;23.352;2022-10-15T06:52:57;12.02;;;6.60;;
41233;SDS011;26968;42.686;23.352;2022-10-15T06:55:22;12.30;;;6.85;;
41233;SDS011;26968;42.686;23.352;2022-10-15T06:57:48;20.35;;;8.35;;
41233;SDS011;26968;42.686;23.352;2022-10-15T07:00:15;16.05;;;7.70;;
41233;SDS011;26968;42.686;23.352;2022-10-15T07:02:41;20.17;;;7.03;;
41233;SDS011;26968;42.686;23.352;2022-10-15T07:05:07;12.55;;;6.60;;
41233;SDS011;26968;42.686;23.352;2022-10-15T07:07:33;15.73;;;7.55;;
41233;SDS011;26968;42.686;23.352;2022-10-15T07:09:59;19.80;;;8.55;;
41233;SDS011;26968;42.686;23.352;2022-10-15T07:12:24;12.90;;;7.20;;
41233;SDS011;26968;42.686;23.352;2022-10-15T07:14:50;14.52;;;7.53;;
41233;SDS011;26968;42.686;23.352;2022-10-15T07:17:15;14.43;;;7.90;;
41233;SDS011;26968;42.686;23.352;2022-10-15T07:19:41;19.23;;;8.98;;
41233;SDS011;26968;42.686;23.352;2022-10-15T07:22:07;20.48;;;7.55;;
41233;SDS011;26968;42.686;23.352;2022-10-15T07:24:33;16.88;;;8.00;;
41233;SDS011;26968;42.686;23.352;2022-10-15T07:26:59;16.15;;;7.32;;
41233;SDS011;26968;42.686;23.352;2022-10-15T07:29:24;16.45;;;8.15;;
41233;SDS011;26968;42.686;23.352;2022-10-15T07:31:49;14.88;;;7.32;;
41233;SDS011;26968;42.686;23.352;2022-10-15T07:34:15;16.98;;;6.43;;
41233;SDS011;26968;42.686;23.352;2022-10-15T07:36:41;9.55;;;6.68;;
41233;SDS011;26968;42.686;23.352;2022-10-15T07:39:07;10.73;;;6.80;;
41233;SDS011;26968;42.686;23.352;2022-10-15T07:41:33;11.60;;;7.13;;
41233;SDS011;26968;42.686;23.352;2022-10-15T07:43:59;17.35;;;7.43;;
41233;SDS011;26968;42.686;23.352;2022-10-15T07:46:24;16.58;;;7.03;;
41233;SDS011;26968;42.686;23.352;2022-10-15T07:48:50;11.23;;;6.22;;
41233;SDS011;26968;42.686;23.352;2022-10-15T07:51:16;12.40;;;6.85;;
41233;SDS011;26968;42.686;23.352;2022-10-15T07:53:41;14.48;;;6.28;;
41233;SDS011;26968;42.686;23.352;2022-10-15T07:56:09;16.85;;;7.72;;
41233;SDS011;26968;42.686;23.352;2022-10-15T07:58:36;15.52;;;6.88;;
41233;SDS011;26968;42.686;23.352;2022-10-15T08:01:06;14.05;;;7.18;;
41233;SDS011;26968;42.686;23.352;2022-10-15T08:03:33;15.07;;;6.97;;
41233;SDS011;26968;42.686;23.352;2022-10-15T08:05:59;9.48;;;6.70;;
41233;SDS011;26968;42.686;23.352;2022-10-15T08:08:26;13.73;;;6.65;;
41233;SDS011;26968;42.686;23.352;2022-10-15T08:10:51;21.48;;;6.53;;
41233;SDS011;26968;42.686;23.352;2022-10-15T08:13:17;10.98;;;6.57;;
41233;SDS011;26968;42.686;23.352;2022-10-15T08:15:42;12.40;;;6.97;;
41233;SDS011;26968;42.686;23.352;2022-10-15T08:18:08;10.90;;;6.03;;
41233;SDS011;26968;42.686;23.352;2022-10-15T08:20:37;15.70;;;7.38;;
41233;SDS011;26968;42.686;23.352;2022-10-15T08:23:03;15.98;;;7.32;;
41233;SDS011;26968;42.686;23.352;2022-10-15T08:25:29;19.58;;;8.20;;
41233;SDS011;26968;42.686;23.352;2022-10-15T08:27:56;13.00;;;6.80;;
41233;SDS011;26968;42.686;23.352;2022-10-15T08:30:22;17.65;;;7.57;;
41233;SDS011;26968;42.686;23.352;2022-10-15T08:32:47;12.60;;;7.57;;
41233;SDS011;26968;42.686;23.352;2022-10-15T08:35:12;17.50;;;7.53;;
41233;SDS011;26968;42.686;23.352;2022-10-15T08:37:38;11.88;;;7.70;;
41233;SDS011;26968;42.686;23.352;2022-10-15T08:40:04;11.35;;;6.80;;
41233;SDS011;26968;42.686;23.352;2022-10-15T08:42:31;13.32;;;7.57;;
41233;SDS011;26968;42.686;23.352;2022-10-15T08:45:02;14.40;;;7.10;;
41233;SDS011;26968;42.686;23.352;2022-10-15T08:47:42;17.90;;;7.88;;
41233;SDS011;26968;42.686;23.352;2022-10-15T08:50:56;18.52;;;7.70;;
41233;SDS011;26968;42.686;23.352;2022-10-15T08:53:29;13.52;;;8.02;;
41233;SDS011;26968;42.686;23.352;2022-10-15T08:56:02;12.27;;;7.28;;
41233;SDS011;26968;42.686;23.352;2022-10-15T08:58:42;11.77;;;6.70;;
41233;SDS011;26968;42.686;23.352;2022-10-15T09:01:34;13.10;;;6.30;;
41233;SDS011;26968;42.686;23.352;2022-10-15T09:06:43;9.52;;;5.65;;
41233;SDS011;26968;42.686;23.352;2022-10-15T09:14:23;8.02;;;5.32;;
41233;SDS011;26968;42.686;23.352;2022-10-15T09:16:53;9.10;;;5.90;;
41233;SDS011;26968;42.686;23.352;2022-10-15T09:19:19;9.20;;;6.05;;
41233;SDS011;26968;42.686;23.352;2022-10-15T09:21:46;11.02;;;6.25;;
41233;SDS011;26968;42.686;23.352;2022-10-15T09:24:16;9.40;;;5.95;;
41233;SDS011;26968;42.686;23.352;2022-10-15T09:29:43;10.45;;;6.95;;
41233;SDS011;26968;42.686;23.352;2022-10-15T09:32:43;15.35;;;6.90;;
41233;SDS011;26968;42.686;23.352;2022-10-15T09:35:17;11.07;;;6.13;;
41233;SDS011;26968;42.686;23.352;2022-10-15T09:43:13;9.20;;;5.50;;
41233;SDS011;26968;42.686;23.352;2022-10-15T09:45:56;10.50;;;6.07;;
41233;SDS011;26968;42.686;23.352;2022-10-15T09:48:22;12.13;;;5.78;;
41233;SDS011;26968;42.686;23.352;2022-10-15T09:50:54;11.55;;;5.70;;
41233;SDS011;26968;42.686;23.352;2022-10-15T09:56:06;8.05;;;5.07;;
41233;SDS011;26968;42.686;23.352;2022-10-15T09:58:38;8.88;;;5.50;;
41233;SDS011;26968;42.686;23.352;2022-10-15T10:01:16;6.35;;;4.70;;
41233;SDS011;26968;42.686;23.352;2022-10-15T10:03:50;14.80;;;5.60;;
41233;SDS011;26968;42.686;23.352;2022-10-15T10:06:18;10.18;;;4.82;;
41233;SDS011;26968;42.686;23.352;2022-10-15T10:08:56;8.82;;;4.43;;
41233;SDS011;26968;42.686;23.352;2022-10-15T10:11:24;11.23;;;4.93;;
41233;SDS011;26968;42.686;23.352;2022-10-15T10:13:57;6.63;;;4.60;;
41233;SDS011;26968;42.686;23.352;2022-10-15T10:16:25;9.82;;;4.22;;
41233;SDS011;26968;42.686;23.352;2022-10-15T10:19:04;8.88;;;4.50;;
41233;SDS011;26968;42.686;23.352;2022-10-15T10:21:37;5.38;;;4.05;;
41233;SDS011;26968;42.686;23.352;2022-10-15T10:24:19;7.32;;;4.22;;
41233;SDS011;26968;42.686;23.352;2022-10-15T10:26:59;9.65;;;4.22;;
41233;SDS011;26968;42.686;23.352;2022-10-15T10:29:26;5.97;;;4.20;;
41233;SDS011;26968;42.686;23.352;2022-10-15T10:31:52;8.10;;;4.10;;
41233;SDS011;26968;42.686;23.352;2022-10-15T10:34:26;5.90;;;3.55;;
41233;SDS011;26968;42.686;23.352;2022-10-15T10:36:53;7.82;;;4.05;;
41233;SDS011;26968;42.686;23.352;2022-10-15T10:42:05;8.88;;;4.55;;
41233;SDS011;26968;42.686;23.352;2022-10-15T10:44:46;6.35;;;4.18;;
41233;SDS011;26968;42.686;23.352;2022-10-15T10:55:05;8.30;;;4.18;;
41233;SDS011;26968;42.686;23.352;2022-10-15T10:57:44;9.60;;;4.13;;
41233;SDS011;26968;42.686;23.352;2022-10-15T11:00:13;14.43;;;4.43;;
41233;SDS011;26968;42.686;23.352;2022-10-15T11:05:08;5.75;;;3.85;;
41233;SDS011;26968;42.686;23.352;2022-10-15T11:07:57;6.60;;;2.75;;
41233;SDS011;26968;42.686;23.352;2022-10-15T11:10:31;8.43;;;3.63;;
41233;SDS011;26968;42.686;23.352;2022-10-15T11:24:41;5.15;;;3.03;;
41233;SDS011;26968;42.686;23.352;2022-10-15T11:30:25;6.43;;;3.03;;
41233;SDS011;26968;42.686;23.352;2022-10-15T11:35:47;10.73;;;3.35;;
41233;SDS011;26968;42.686;23.352;2022-10-15T11:55:31;5.53;;;3.03;;
41233;SDS011;26968;42.686;23.352;2022-10-15T11:57:58;6.68;;;2.80;;
41233;SDS011;26968;42.686;23.352;2022-10-15T12:03:15;10.30;;;3.17;;
41233;SDS011;26968;42.686;23.352;2022-10-15T12:06:05;6.93;;;3.45;;
41233;SDS011;26968;42.686;23.352;2022-10-15T12:08:34;4.80;;;3.30;;
41233;SDS011;26968;42.686;23.352;2022-10-15T12:11:14;6.57;;;2.88;;
41233;SDS011;26968;42.686;23.352;2022-10-15T12:19:50;5.20;;;2.90;;
41233;SDS011;26968;42.686;23.352;2022-10-15T12:22:34;5.32;;;2.58;;
41233;SDS011;26968;42.686;23.352;2022-10-15T12:25:03;7.82;;;3.58;;
41233;SDS011;26968;42.686;23.352;2022-10-15T12:27:31;9.10;;;4.00;;
41233;SDS011;26968;42.686;23.352;2022-10-15T12:32:28;7.63;;;3.20;;
41233;SDS011;26968;42.686;23.352;2022-10-15T12:35:01;7.60;;;2.95;;
41233;SDS011;26968;42.686;23.352;2022-10-15T12:37:30;7.68;;;3.38;;
41233;SDS011;26968;42.686;23.352;2022-10-15T12:40:05;7.55;;;2.92;;
41233;SDS011;26968;42.686;23.352;2022-10-15T12:45:24;8.25;;;3.00;;
41233;SDS011;26968;42.686;23.352;2022-10-15T12:50:34;6.95;;;2.85;;
41233;SDS011;26968;42.686;23.352;2022-10-15T12:55:36;7.25;;;3.45;;
41233;SDS011;26968;42.686;23.352;2022-10-15T13:01:03;5.28;;;3.28;;
41233;SDS011;26968;42.686;23.352;2022-10-15T13:06:22;7.88;;;3.38;;
41233;SDS011;26968;42.686;23.352;2022-10-15T13:11:31;5.05;;;2.92;;
41233;SDS011;26968;42.686;23.352;2022-10-15T13:14:48;8.02;;;3.33;;
41233;SDS011;26968;42.686;23.352;2022-10-15T13:16:53;4.70;;;2.88;;
41233;SDS011;26968;42.686;23.352;2022-10-15T13:19:21;7.78;;;3.38;;
41233;SDS011;26968;42.686;23.352;2022-10-15T13:21:59;6.35;;;3.65;;
41233;SDS011;26968;42.686;23.352;2022-10-15T13:24:27;5.43;;;3.25;;
41233;SDS011;26968;42.686;23.352;2022-10-15T13:26:55;6.60;;;3.13;;
41233;SDS011;26968;42.686;23.352;2022-10-15T13:29:25;6.95;;;3.38;;
41233;SDS011;26968;42.686;23.352;2022-10-15T13:31:52;5.78;;;3.95;;
41233;SDS011;26968;42.686;23.352;2022-10-15T13:36:54;10.63;;;4.30;;
41233;SDS011;26968;42.686;23.352;2022-10-15T13:39:37;6.70;;;4.13;;
41233;SDS011;26968;42.686;23.352;2022-10-15T13:42:06;9.48;;;3.97;;
41233;SDS011;26968;42.686;23.352;2022-10-15T13:44:33;5.22;;;3.13;;
41233;SDS011;26968;42.686;23.352;2022-10-15T13:46:59;7.78;;;3.65;;
41233;SDS011;26968;42.686;23.352;2022-10-15T13:49:25;15.82;;;3.45;;
41233;SDS011;26968;42.686;23.352;2022-10-15T13:51:51;6.82;;;3.25;;
41233;SDS011;26968;42.686;23.352;2022-10-15T13:54:24;9.85;;;4.35;;
41233;SDS011;26968;42.686;23.352;2022-10-15T13:56:57;8.10;;;3.50;;
41233;SDS011;26968;42.686;23.352;2022-10-15T13:59:26;9.85;;;4.05;;
41233;SDS011;26968;42.686;23.352;2022-10-15T14:01:55;7.45;;;3.38;;
41233;SDS011;26968;42.686;23.352;2022-10-15T14:04:25;10.27;;;3.28;;
41233;SDS011;26968;42.686;23.352;2022-10-15T14:07:00;9.10;;;3.13;;
41233;SDS011;26968;42.686;23.352;2022-10-15T14:09:28;5.22;;;2.67;;
41233;SDS011;26968;42.686;23.352;2022-10-15T14:11:56;8.32;;;3.10;;
41233;SDS011;26968;42.686;23.352;2022-10-15T14:14:30;6.30;;;2.67;;
41233;SDS011;26968;42.686;23.352;2022-10-15T14:16:57;11.00;;;3.20;;
41233;SDS011;26968;42.686;23.352;2022-10-15T14:19:24;7.32;;;3.38;;
41233;SDS011;26968;42.686;23.352;2022-10-15T14:21:54;6.85;;;3.17;;
41233;SDS011;26968;42.686;23.352;2022-10-15T14:27:13;9.10;;;3.45;;
41233;SDS011;26968;42.686;23.352;2022-10-15T14:29:42;8.38;;;3.80;;
41233;SDS011;26968;42.686;23.352;2022-10-15T14:35:21;7.95;;;3.58;;
41233;SDS011;26968;42.686;23.352;2022-10-15T14:37:57;5.10;;;3.20;;
41233;SDS011;26968;42.686;23.352;2022-10-15T14:40:24;10.32;;;3.60;;
41233;SDS011;26968;42.686;23.352;2022-10-15T14:47:56;6.38;;;3.00;;
41233;SDS011;26968;42.686;23.352;2022-10-15T14:50:24;5.93;;;2.70;;
41233;SDS011;26968;42.686;23.352;2022-10-15T14:52:53;8.07;;;3.45;;
41233;SDS011;26968;42.686;23.352;2022-10-15T14:57:48;6.32;;;3.20;;
41233;SDS011;26968;42.686;23.352;2022-10-15T15:00:37;13.00;;;4.00;;
41233;SDS011;26968;42.686;23.352;2022-10-15T15:03:05;4.60;;;2.75;;
41233;SDS011;26968;42.686;23.352;2022-10-15T15:05:42;7.30;;;2.90;;
41233;SDS011;26968;42.686;23.352;2022-10-15T15:08:18;6.55;;;3.50;;
41233;SDS011;26968;42.686;23.352;2022-10-15T15:10:44;6.55;;;3.88;;
41233;SDS011;26968;42.686;23.352;2022-10-15T15:13:21;4.53;;;3.17;;
41233;SDS011;26968;42.686;23.352;2022-10-15T15:15:48;7.18;;;3.80;;
41233;SDS011;26968;42.686;23.352;2022-10-15T15:18:14;10.00;;;3.92;;
41233;SDS011;26968;42.686;23.352;2022-10-15T15:20:40;7.40;;;4.13;;
41233;SDS011;26968;42.686;23.352;2022-10-15T15:23:09;10.25;;;3.80;;
41233;SDS011;26968;42.686;23.352;2022-10-15T15:25:39;7.25;;;3.25;;
41233;SDS011;26968;42.686;23.352;2022-10-15T15:28:05;8.35;;;3.33;;
41233;SDS011;26968;42.686;23.352;2022-10-15T15:30:38;12.10;;;3.42;;
41233;SDS011;26968;42.686;23.352;2022-10-15T15:33:10;7.40;;;3.15;;
41233;SDS011;26968;42.686;23.352;2022-10-15T15:35:52;8.40;;;3.33;;
41233;SDS011;26968;42.686;23.352;2022-10-15T15:38:24;8.52;;;3.05;;
41233;SDS011;26968;42.686;23.352;2022-10-15T15:41:02;5.15;;;2.75;;
41233;SDS011;26968;42.686;23.352;2022-10-15T15:43:37;5.60;;;3.10;;
41233;SDS011;26968;42.686;23.352;2022-10-15T15:46:03;7.70;;;3.47;;
41233;SDS011;26968;42.686;23.352;2022-10-15T15:48:29;8.52;;;3.35;;
41233;SDS011;26968;42.686;23.352;2022-10-15T15:50:55;8.35;;;3.25;;
41233;SDS011;26968;42.686;23.352;2022-10-15T15:53:25;10.32;;;3.75;;
41233;SDS011;26968;42.686;23.352;2022-10-15T15:55:50;7.03;;;3.53;;
41233;SDS011;26968;42.686;23.352;2022-10-15T15:58:16;7.30;;;3.30;;
41233;SDS011;26968;42.686;23.352;2022-10-15T16:00:41;9.65;;;3.45;;
41233;SDS011;26968;42.686;23.352;2022-10-15T16:03:07;8.35;;;3.50;;
41233;SDS011;26968;42.686;23.352;2022-10-15T16:05:36;16.38;;;4.28;;
41233;SDS011;26968;42.686;23.352;2022-10-15T16:08:03;11.20;;;3.35;;
41233;SDS011;26968;42.686;23.352;2022-10-15T16:10:29;7.53;;;4.38;;
41233;SDS011;26968;42.686;23.352;2022-10-15T16:12:55;10.32;;;4.57;;
41233;SDS011;26968;42.686;23.352;2022-10-15T16:15:21;8.27;;;4.22;;
41233;SDS011;26968;42.686;23.352;2022-10-15T16:17:46;10.05;;;4.65;;
41233;SDS011;26968;42.686;23.352;2022-10-15T16:20:12;7.55;;;4.75;;
41233;SDS011;26968;42.686;23.352;2022-10-15T16:22:37;8.38;;;4.45;;
41233;SDS011;26968;42.686;23.352;2022-10-15T16:25:03;13.40;;;4.82;;
41233;SDS011;26968;42.686;23.352;2022-10-15T16:27:29;10.77;;;4.78;;
41233;SDS011;26968;42.686;23.352;2022-10-15T16:29:54;8.23;;;4.85;;
41233;SDS011;26968;42.686;23.352;2022-10-15T16:32:20;9.43;;;4.90;;
41233;SDS011;26968;42.686;23.352;2022-10-15T16:34:45;9.63;;;4.47;;
41233;SDS011;26968;42.686;23.352;2022-10-15T16:37:11;11.43;;;4.68;;
41233;SDS011;26968;42.686;23.352;2022-10-15T16:39:36;9.18;;;5.03;;
41233;SDS011;26968;42.686;23.352;2022-10-15T16:42:02;20.13;;;5.05;;
41233;SDS011;26968;42.686;23.352;2022-10-15T16:44:28;12.10;;;5.40;;
41233;SDS011;26968;42.686;23.352;2022-10-15T16:46:53;13.98;;;5.30;;
41233;SDS011;26968;42.686;23.352;2022-10-15T16:49:19;8.73;;;5.32;;
41233;SDS011;26968;42.686;23.352;2022-10-15T16:51:44;11.82;;;5.45;;
41233;SDS011;26968;42.686;23.352;2022-10-15T16:54:11;13.82;;;6.00;;
41233;SDS011;26968;42.686;23.352;2022-10-15T16:56:37;9.98;;;5.60;;